.
WxDataArchive / Data Records for 2015-10-14
2015-10-13 October 2015 2015-10-15

Data Records for Wednesday, 14 October 2015

Time	Temp	Chill	HIndex	Humid	Dewpt	 Wind 	HiWind	WindDir	Rain 	Barom
-----	----	-----	------	-----	-----	------	------	-------	-----	-----
00:00	48.6	48.6	48.6	81	43.0	0	0	---	0.00	29.806 
00:05	48.6	48.6	48.6	81	43.0	0	0	---	0.00	29.806 
00:10	48.5	48.5	48.5	82	43.3	0	0	---	0.00	29.806 
00:15	48.6	48.6	48.6	82	43.4	0	0	---	0.00	29.805 
00:20	48.6	48.6	48.6	82	43.4	0	0	---	0.00	29.805 
00:25	48.6	48.6	48.6	82	43.4	0	0	---	0.00	29.805 
00:30	48.8	48.8	48.8	81	43.2	0	0	---	0.00	29.806 
00:35	48.8	48.8	48.8	81	43.2	0	1	270	0.00	29.806 
00:40	48.6	48.6	48.6	81	43.0	0	0	---	0.00	29.806 
00:45	48.5	48.5	48.5	81	42.9	0	0	---	0.00	29.804 
00:50	48.5	48.5	48.5	82	43.3	0	0	---	0.00	29.804 
00:55	48.5	48.5	48.5	82	43.3	0	0	---	0.00	29.804 
01:00	48.5	48.5	48.5	82	43.3	0	0	---	0.00	29.799 
01:05	48.5	48.5	48.5	82	43.3	0	0	---	0.00	29.799 
01:10	48.5	48.5	48.5	82	43.3	0	0	---	0.00	29.799 
01:15	48.5	48.5	48.5	82	43.3	0	0	---	0.00	29.803 
01:20	48.5	48.5	48.5	82	43.3	0	0	---	0.00	29.803 
01:25	48.5	48.5	48.5	82	43.3	0	0	---	0.00	29.803 
01:30	48.5	48.5	48.5	82	43.3	0	0	---	0.00	29.801 
01:35	48.5	48.5	48.5	82	43.3	0	0	---	0.00	29.801 
01:40	48.3	48.3	48.3	82	43.1	0	0	---	0.00	29.801 
01:45	48.3	48.3	48.3	82	43.1	0	0	---	0.00	29.800 
01:50	48.3	48.3	48.3	82	43.1	0	0	---	0.00	29.800 
01:55	48.2	48.2	48.2	82	43.0	0	0	---	0.00	29.800 
02:00	48.2	48.2	48.2	82	43.0	0	0	---	0.00	29.799 
02:05	48.3	48.3	48.3	82	43.1	0	0	---	0.00	29.799 
02:10	48.3	48.3	48.3	82	43.1	0	0	---	0.00	29.799 
02:15	48.5	48.5	48.5	82	43.3	0	0	---	0.00	29.804 
02:20	48.5	48.5	48.5	81	42.9	0	0	---	0.00	29.804 
02:25	48.6	48.6	48.6	81	43.0	0	0	---	0.00	29.804 
02:30	48.8	48.8	48.8	81	43.2	0	0	---	0.00	29.798 
02:35	48.8	48.8	48.8	81	43.2	0	0	---	0.00	29.798 
02:40	48.8	48.8	48.8	81	43.2	0	0	---	0.00	29.798 
02:45	48.9	48.9	48.9	81	43.3	0	0	---	0.00	29.804 
02:50	48.9	48.9	48.9	81	43.3	0	0	---	0.00	29.804 
02:55	48.9	48.9	48.9	81	43.3	0	0	---	0.00	29.804 
03:00	49.1	49.1	49.1	80	43.2	0	0	---	0.00	29.801 
03:05	49.1	49.1	49.1	80	43.2	0	0	---	0.00	29.801 
03:10	49.2	49.2	49.2	80	43.3	0	0	---	0.00	29.801 
03:15	49.2	49.2	49.2	80	43.3	0	0	---	0.00	29.800 
03:20	49.2	49.2	49.2	80	43.3	0	0	---	0.00	29.800 
03:25	49.2	49.2	49.2	79	43.0	0	0	---	0.00	29.800 
03:30	49.4	49.4	49.4	79	43.2	0	0	---	0.00	29.799 
03:35	49.4	49.4	49.4	79	43.2	0	0	---	0.00	29.799 
03:40	49.4	49.4	49.4	79	43.2	0	0	---	0.00	29.799 
03:45	49.4	49.4	49.4	79	43.2	0	1	270	0.00	29.797 
03:50	49.4	49.4	49.4	79	43.2	0	1	270	0.00	29.797 
03:55	49.4	49.4	49.4	79	43.2	0	0	---	0.00	29.797 
04:00	49.4	49.4	49.4	79	43.2	0	0	---	0.00	29.799 
04:05	49.4	49.4	49.4	78	42.8	0	0	---	0.00	29.799 
04:10	49.2	49.2	49.2	79	43.0	0	0	---	0.00	29.799 
04:15	49.2	49.2	49.2	79	43.0	0	0	---	0.00	29.799 
04:20	49.1	49.1	49.1	79	42.9	0	0	---	0.00	29.799 
04:25	48.9	48.9	48.9	79	42.7	0	0	---	0.00	29.799 
04:30	48.8	48.8	48.8	79	42.6	0	0	---	0.00	29.800 
04:35	48.5	48.5	48.5	79	42.3	0	0	---	0.00	29.800 
04:40	48.3	48.3	48.3	80	42.4	0	0	---	0.00	29.800 
04:45	48.2	48.2	48.2	80	42.3	0	0	---	0.00	29.800 
04:50	48.0	48.0	48.0	80	42.1	0	1	270	0.00	29.800 
04:55	47.9	47.9	47.9	80	42.0	0	1	270	0.00	29.800 
05:00	47.7	47.7	47.7	80	41.8	0	1	270	0.00	29.802 
05:05	47.6	47.6	47.6	81	42.1	0	1	270	0.00	29.802 
05:10	47.3	47.3	47.3	81	41.8	0	0	---	0.00	29.802 
05:15	47.1	47.1	47.1	82	41.9	0	1	270	0.00	29.813 
05:20	47.0	47.0	47.0	82	41.8	0	1	270	0.00	29.813 
05:25	47.0	47.0	47.0	82	41.8	0	1	270	0.00	29.813 
05:30	47.1	47.1	47.1	82	41.9	0	1	270	0.00	29.817 
05:35	47.3	47.3	47.3	82	42.1	0	1	270	0.00	29.817 
05:40	47.3	47.3	47.3	82	42.1	0	1	270	0.00	29.817 
05:45	47.4	47.4	47.4	82	42.2	0	1	270	0.00	29.826 
05:50	47.4	47.4	47.4	82	42.2	0	1	270	0.00	29.826 
05:55	47.4	47.4	47.4	82	42.2	0	1	270	0.00	29.826 
06:00	47.4	47.4	47.4	82	42.2	0	1	270	0.00	29.830 
06:05	47.4	47.4	47.4	82	42.2	0	1	270	0.00	29.830 
06:10	47.4	47.4	47.4	82	42.2	0	1	270	0.00	29.830 
06:15	47.4	47.4	47.4	82	42.2	0	1	270	0.00	29.833 
06:20	47.4	47.4	47.4	82	42.2	0	0	---	0.00	29.833 
06:25	47.3	47.3	47.3	82	42.1	0	0	---	0.00	29.833 
06:30	47.1	47.1	47.1	82	41.9	0	0	---	0.00	29.828 
06:35	47.1	47.1	47.1	82	41.9	0	0	---	0.00	29.828 
06:40	46.8	46.8	46.8	82	41.6	0	0	---	0.00	29.828 
06:45	46.8	46.8	46.8	82	41.6	0	0	---	0.00	29.830 
06:50	46.5	46.5	46.5	83	41.6	0	0	---	0.00	29.830 
06:55	46.4	46.4	46.4	83	41.5	0	0	---	0.00	29.830 
07:00	46.2	46.2	46.2	83	41.3	0	0	---	0.00	29.835 
07:05	46.0	46.0	46.0	83	41.1	0	0	---	0.00	29.835 
07:10	45.8	45.8	45.8	84	41.2	0	0	---	0.00	29.835 
07:15	45.7	45.7	45.7	84	41.1	0	0	---	0.00	29.835 
07:20	45.5	45.5	45.5	84	41.0	0	0	---	0.00	29.835 
07:25	45.2	45.2	45.2	85	41.0	0	1	270	0.00	29.835 
07:30	45.1	45.1	45.1	85	40.9	0	0	---	0.00	29.843 
07:35	44.9	44.9	44.9	86	41.0	0	0	---	0.00	29.843 
07:40	44.8	44.8	44.8	86	40.9	0	0	---	0.00	29.843 
07:45	44.6	44.6	44.6	86	40.7	0	0	---	0.00	29.849 
07:50	44.5	44.5	44.5	87	40.9	0	0	---	0.00	29.849 
07:55	44.2	44.2	44.2	87	40.6	0	0	---	0.00	29.849 
08:00	44.1	44.1	44.1	87	40.5	0	0	---	0.00	29.853 
08:05	43.9	43.9	43.9	87	40.3	0	0	---	0.00	29.853 
08:10	43.8	43.8	43.8	88	40.5	0	0	---	0.00	29.853 
08:15	43.8	43.8	43.8	88	40.5	0	0	---	0.00	29.865 
08:20	43.8	43.8	43.8	88	40.5	0	0	---	0.00	29.865 
08:25	43.9	43.9	43.9	88	40.6	0	0	---	0.00	29.865 
08:30	44.3	44.3	44.3	89	41.3	0	0	---	0.00	29.869 
08:35	44.9	44.9	44.9	90	42.1	0	1	270	0.00	29.869 
08:40	45.4	45.4	45.4	89	42.3	0	1	270	0.00	29.869 
08:45	45.8	45.8	45.8	89	42.7	0	1	270	0.00	29.874 
08:50	46.2	46.2	46.2	89	43.1	0	1	270	0.00	29.874 
08:55	46.8	46.8	46.8	88	43.4	0	2	270	0.00	29.874 
09:00	47.4	47.4	47.4	88	44.0	0	2	270	0.00	29.877 
09:05	47.9	47.9	47.9	87	44.2	0	3	270	0.00	29.877 
09:10	48.3	48.3	48.3	86	44.3	0	1	270	0.00	29.877 
09:15	48.5	48.5	48.5	85	44.2	0	1	270	0.00	29.878 
09:20	48.8	48.8	48.8	84	44.2	0	1	270	0.00	29.878 
09:25	49.1	49.1	49.1	84	44.5	0	2	292	0.00	29.878 
09:30	49.6	49.6	49.6	84	45.0	0	4	292	0.00	29.879 
09:35	50.4	50.4	50.4	83	45.4	0	2	292	0.00	29.879 
09:40	51.3	51.3	51.3	81	45.7	1	3	292	0.00	29.879 
09:45	52.2	52.2	52.2	77	45.2	1	4	292	0.00	29.878 
09:50	52.5	52.5	52.5	75	44.8	1	3	292	0.00	29.878 
09:55	52.5	52.5	52.5	74	44.5	0	3	292	0.00	29.878 
10:00	52.5	52.5	52.5	74	44.5	0	2	292	0.00	29.883 
10:05	52.8	52.8	52.8	74	44.7	1	5	292	0.00	29.883 
10:10	52.9	52.9	52.9	72	44.1	1	5	315	0.00	29.883 
10:15	53.2	53.2	53.2	71	44.0	1	3	315	0.00	29.883 
10:20	53.8	53.8	53.8	64	41.9	2	4	315	0.00	29.883 
10:25	54.4	54.4	54.4	58	39.9	2	6	292	0.00	29.883 
10:30	54.4	54.4	54.4	55	38.6	1	4	315	0.00	29.891 
10:35	54.5	54.5	54.5	55	38.7	1	3	315	0.00	29.891 
10:40	55.0	55.0	55.0	55	39.1	1	2	315	0.00	29.891 
10:45	55.1	55.1	55.1	53	38.3	2	6	292	0.00	29.890 
10:50	55.1	55.1	55.1	54	38.8	2	5	270	0.00	29.890 
10:55	55.4	55.4	55.4	54	39.0	1	4	270	0.00	29.890 
11:00	55.6	55.6	55.6	53	38.7	2	4	270	0.00	29.899 
11:05	55.9	55.9	55.9	53	39.0	1	6	315	0.00	29.899 
11:10	55.9	55.9	55.9	53	39.0	2	5	292	0.00	29.899 
11:15	56.0	56.0	56.0	54	39.6	2	5	270	0.00	29.908 
11:20	55.6	55.6	55.6	54	39.2	2	7	292	0.00	29.908 
11:25	55.6	55.6	55.6	55	39.7	2	6	338	0.00	29.908 
11:30	56.0	56.0	56.0	55	40.1	1	3	338	0.00	29.919 
11:35	56.0	56.0	56.0	54	39.6	1	4	338	0.00	29.919 
11:40	55.9	55.9	55.9	55	40.0	2	6	292	0.00	29.919 
11:45	55.4	55.4	55.4	54	39.0	2	7	292	0.00	29.926 
11:50	55.3	55.3	55.3	56	39.9	1	4	315	0.00	29.926 
11:55	55.3	55.3	55.3	57	40.3	1	4	315	0.00	29.926 
12:00	55.6	55.6	55.6	56	40.2	2	5	338	0.00	29.927 
12:05	55.6	55.6	55.6	57	40.6	2	6	315	0.00	29.927 
12:10	55.4	55.4	55.4	57	40.4	0	3	338	0.00	29.927 
12:15	55.6	55.6	55.6	58	41.1	1	5	338	0.00	29.925 
12:20	56.3	56.3	56.3	56	40.8	2	5	270	0.00	29.925 
12:25	56.3	56.3	56.3	55	40.3	2	6	270	0.00	29.925 
12:30	55.9	55.9	55.9	55	40.0	2	9	315	0.00	29.938 
12:35	55.7	55.7	55.7	56	40.2	3	6	338	0.00	29.938 
12:40	55.4	55.4	55.4	56	40.0	2	6	292	0.00	29.938 
12:45	55.6	55.6	55.6	56	40.2	2	6	315	0.00	29.938 
12:50	55.7	55.7	55.7	55	39.8	2	6	315	0.00	29.938 
12:55	55.9	55.9	55.9	56	40.4	2	5	292	0.00	29.938 
13:00	56.5	56.5	56.5	56	41.0	2	5	338	0.00	29.937 
13:05	56.9	56.9	56.9	54	40.4	2	5	338	0.00	29.937 
13:10	57.0	57.0	57.0	52	39.5	2	6	0	0.00	29.937 
13:15	57.0	57.0	57.0	51	39.1	1	5	270	0.00	29.930 
13:20	56.6	56.6	56.6	52	39.2	3	7	315	0.00	29.930 
13:25	56.3	56.3	56.3	52	38.9	2	5	292	0.00	29.930 
13:30	56.7	56.7	56.7	52	39.3	2	6	292	0.00	29.930 
13:35	56.9	56.9	56.9	51	39.0	2	7	315	0.00	29.930 
13:40	57.3	57.3	57.3	50	38.8	3	7	270	0.00	29.930 
13:45	57.3	57.3	57.3	51	39.3	2	6	270	0.00	29.936 
13:50	57.0	57.0	57.0	51	39.1	3	8	292	0.00	29.936 
13:55	57.3	57.3	57.3	51	39.3	2	5	292	0.00	29.936 
14:00	57.5	57.5	57.5	50	39.0	3	11	292	0.00	29.926 
14:05	57.8	57.8	57.8	50	39.3	3	9	315	0.00	29.926 
14:10	57.2	57.2	57.2	50	38.7	2	4	292	0.00	29.926 
14:15	57.3	57.3	57.3	50	38.8	2	7	315	0.00	29.927 
14:20	57.5	57.5	57.5	51	39.5	3	5	292	0.00	29.927 
14:25	58.0	58.0	58.0	50	39.5	2	6	292	0.00	29.927 
14:30	58.4	58.4	58.4	49	39.3	2	6	315	0.00	29.926 
14:35	58.4	58.4	58.4	49	39.3	1	4	292	0.00	29.926 
14:40	58.9	58.9	58.9	48	39.2	1	5	338	0.00	29.926 
14:45	58.9	58.9	58.9	49	39.8	2	5	292	0.00	29.922 
14:50	58.9	58.9	58.9	48	39.2	2	5	292	0.00	29.922 
14:55	59.0	59.0	59.0	48	39.3	2	5	292	0.00	29.922 
15:00	58.7	58.7	58.7	48	39.1	3	6	338	0.00	29.927 
15:05	58.9	58.9	58.9	48	39.2	2	6	292	0.00	29.927 
15:10	58.9	58.9	58.9	47	38.7	3	9	315	0.00	29.927 
15:15	58.9	58.9	58.9	48	39.2	2	6	292	0.00	29.926 
15:20	59.2	59.2	59.2	48	39.5	1	5	315	0.00	29.926 
15:25	59.2	59.2	59.2	47	39.0	1	5	338	0.00	29.926 
15:30	59.2	59.2	59.2	48	39.5	2	6	292	0.00	29.926 
15:35	59.3	59.3	59.3	48	39.6	2	6	292	0.00	29.926 
15:40	59.2	59.2	59.2	47	39.0	3	6	292	0.00	29.926 
15:45	59.3	59.3	59.3	46	38.5	2	6	315	0.00	29.924 
15:50	59.5	59.5	59.5	46	38.7	2	6	270	0.00	29.924 
15:55	59.2	59.2	59.2	46	38.4	2	6	292	0.00	29.924 
16:00	59.0	59.0	59.0	45	37.7	2	6	338	0.00	29.922 
16:05	59.2	59.2	59.2	46	38.4	2	6	292	0.00	29.922 
16:10	59.2	59.2	59.2	46	38.4	2	5	292	0.00	29.922 
16:15	59.2	59.2	59.2	46	38.4	2	5	270	0.00	29.929 
16:20	59.2	59.2	59.2	45	37.9	3	9	292	0.00	29.929 
16:25	59.2	59.2	59.2	45	37.9	3	7	315	0.00	29.929 
16:30	59.2	59.2	59.2	46	38.4	2	6	315	0.00	29.934 
16:35	59.0	59.0	59.0	46	38.2	3	7	315	0.00	29.934 
16:40	59.2	59.2	59.2	45	37.9	2	7	315	0.00	29.934 
16:45	59.0	59.0	59.0	45	37.7	1	3	292	0.00	29.937 
16:50	59.2	59.2	59.2	45	37.9	2	6	292	0.00	29.937 
16:55	59.2	59.2	59.2	45	37.9	2	5	292	0.00	29.937 
17:00	59.5	59.5	59.5	45	38.1	1	3	292	0.00	29.936 
17:05	59.5	59.5	59.5	45	38.1	1	5	315	0.00	29.936 
17:10	59.6	59.6	59.6	45	38.2	1	4	315	0.00	29.936 
17:15	59.6	59.6	59.6	45	38.2	1	2	270	0.00	29.937 
17:20	59.6	59.6	59.6	44	37.7	2	5	292	0.00	29.937 
17:25	59.5	59.5	59.5	44	37.6	1	4	315	0.00	29.937 
17:30	59.5	59.5	59.5	45	38.1	1	4	270	0.00	29.938 
17:35	59.5	59.5	59.5	45	38.1	1	6	270	0.00	29.938 
17:40	59.3	59.3	59.3	44	37.4	1	4	292	0.00	29.938 
17:45	59.2	59.2	59.2	44	37.3	1	5	338	0.00	29.938 
17:50	59.0	59.0	59.0	44	37.1	1	4	315	0.00	29.938 
17:55	59.0	59.0	59.0	45	37.7	1	6	292	0.00	29.938 
18:00	58.9	58.9	58.9	44	37.0	2	5	315	0.00	29.937 
18:05	58.9	58.9	58.9	44	37.0	1	5	338	0.00	29.937 
18:10	58.7	58.7	58.7	45	37.4	0	2	338	0.00	29.937 
18:15	58.6	58.6	58.6	46	37.9	0	2	338	0.00	29.940 
18:20	58.4	58.4	58.4	45	37.1	1	4	292	0.00	29.940 
18:25	58.3	58.3	58.3	46	37.6	0	3	315	0.00	29.940 
18:30	58.1	58.1	58.1	46	37.4	1	4	292	0.00	29.948 
18:35	58.0	58.0	58.0	46	37.3	0	2	292	0.00	29.948 
18:40	57.6	57.6	57.6	47	37.5	0	3	292	0.00	29.948 
18:45	57.5	57.5	57.5	47	37.4	0	1	292	0.00	29.952 
18:50	57.2	57.2	57.2	49	38.2	0	0	---	0.00	29.952 
18:55	57.0	57.0	57.0	49	38.0	0	0	---	0.00	29.952 
19:00	56.6	56.6	56.6	50	38.2	0	1	292	0.00	29.958 
19:05	56.5	56.5	56.5	50	38.1	0	2	292	0.00	29.958 
19:10	56.2	56.2	56.2	50	37.8	0	1	292	0.00	29.958 
19:15	56.0	56.0	56.0	50	37.6	0	1	292	0.00	29.964 
19:20	55.7	55.7	55.7	51	37.9	0	1	292	0.00	29.964 
19:25	55.6	55.6	55.6	51	37.8	0	1	292	0.00	29.964 
19:30	55.3	55.3	55.3	52	38.0	0	1	292	0.00	29.972 
19:35	55.1	55.1	55.1	53	38.3	0	0	---	0.00	29.972 
19:40	54.8	54.8	54.8	53	38.0	0	0	---	0.00	29.972 
19:45	54.4	54.4	54.4	54	38.1	0	0	---	0.00	29.979 
19:50	54.1	54.1	54.1	56	38.8	0	0	---	0.00	29.979 
19:55	53.6	53.6	53.6	57	38.7	0	0	---	0.00	29.979 
20:00	53.2	53.2	53.2	57	38.4	0	0	---	0.00	29.985 
20:05	52.8	52.8	52.8	58	38.4	0	0	---	0.00	29.985 
20:10	52.2	52.2	52.2	60	38.7	0	0	---	0.00	29.985 
20:15	51.6	51.6	51.6	61	38.6	0	0	---	0.00	29.991 
20:20	51.1	51.1	51.1	62	38.5	0	0	---	0.00	29.991 
20:25	50.4	50.4	50.4	64	38.7	0	0	---	0.00	29.991 
20:30	49.8	49.8	49.8	65	38.5	0	0	---	0.00	29.994 
20:35	49.4	49.4	49.4	66	38.5	0	0	---	0.00	29.994 
20:40	48.9	48.9	48.9	68	38.8	0	0	---	0.00	29.994 
20:45	48.5	48.5	48.5	69	38.8	0	0	---	0.00	29.999 
20:50	48.2	48.2	48.2	70	38.9	0	0	---	0.00	29.999 
20:55	48.0	48.0	48.0	71	39.1	0	0	---	0.00	29.999 
21:00	47.7	47.7	47.7	72	39.1	0	0	---	0.00	29.999 
21:05	47.4	47.4	47.4	73	39.2	0	0	---	0.00	29.999 
21:10	47.0	47.0	47.0	73	38.8	0	0	---	0.00	29.999 
21:15	46.7	46.7	46.7	74	38.9	0	0	---	0.00	29.999 
21:20	46.5	46.5	46.5	75	39.0	0	0	---	0.00	29.999 
21:25	46.2	46.2	46.2	76	39.1	0	0	---	0.00	29.999 
21:30	46.1	46.1	46.1	76	39.0	0	0	---	0.00	30.006 
21:35	45.8	45.8	45.8	77	39.0	0	0	---	0.00	30.006 
21:40	45.7	45.7	45.7	77	38.9	0	0	---	0.00	30.006 
21:45	45.5	45.5	45.5	78	39.0	0	0	---	0.00	30.008 
21:50	45.4	45.4	45.4	78	38.9	0	0	---	0.00	30.008 
21:55	45.2	45.2	45.2	79	39.1	0	0	---	0.00	30.008 
22:00	44.9	44.9	44.9	79	38.8	0	0	---	0.00	30.010 
22:05	44.8	44.8	44.8	80	39.0	0	0	---	0.00	30.010 
22:10	44.5	44.5	44.5	80	38.7	0	0	---	0.00	30.010 
22:15	44.3	44.3	44.3	80	38.5	0	0	---	0.00	30.009 
22:20	44.2	44.2	44.2	81	38.7	0	0	---	0.00	30.009 
22:25	44.1	44.1	44.1	81	38.6	0	0	---	0.00	30.009 
22:30	43.8	43.8	43.8	81	38.4	0	0	---	0.00	30.008 
22:35	43.6	43.6	43.6	82	38.5	0	0	---	0.00	30.008 
22:40	43.3	43.3	43.3	82	38.2	0	0	---	0.00	30.008 
22:45	43.2	43.2	43.2	83	38.4	0	0	---	0.00	30.010 
22:50	43.1	43.1	43.1	83	38.3	0	0	---	0.00	30.010 
22:55	42.8	42.8	42.8	83	38.0	0	0	---	0.00	30.010 
23:00	42.6	42.6	42.6	84	38.1	0	0	---	0.00	30.011 
23:05	42.5	42.5	42.5	84	38.0	0	0	---	0.00	30.011 
23:10	42.3	42.3	42.3	84	37.8	0	0	---	0.00	30.011 
23:15	42.3	42.3	42.3	84	37.8	0	0	---	0.00	30.012 
23:20	42.2	42.2	42.2	84	37.7	0	0	---	0.00	30.012 
23:25	42.1	42.1	42.1	84	37.6	0	0	---	0.00	30.012 
23:30	41.9	41.9	41.9	84	37.4	0	0	---	0.00	30.008 
23:35	41.8	41.8	41.8	85	37.6	0	0	---	0.00	30.008 
23:40	41.6	41.6	41.6	85	37.4	0	0	---	0.00	30.008 
23:45	41.5	41.5	41.5	86	37.6	0	0	---	0.00	30.008 
23:50	41.3	41.3	41.3	86	37.4	0	0	---	0.00	30.008 
23:55	41.2	41.2	41.2	86	37.3	0	0	---	0.00	30.008 

CoCoRaHS
IN-AL-39
A2 Web Hosting
Creative Commons License
GoDaddy
search engine by freefind advanced

loaded 2018-11-17 14:25:27 • last modified 2010-11-18 10:43:29
Privacy PolicyDisclaimer
• wx.awcolley.com is powered by PmWiki v.2002016 •
• all content (unless otherwise noted) © 2018 A W Colley